Latest Coastal Weather Observations for Robe Airport

IDV60701

Issued at 8:22 pm EDT Wednesday 7 December 2022 (issued every 10 minutes, with the page automatically refreshed every 10 minutes)

About coastal observations | Map of coastal stations | Coastal observations for VIC | Marine services | Other Formats
Station Details ID: 026105 Name: ROBE AIRFIELD Lat: -37.18 Lon: 139.81 Height: 3.0 m
Data from the previous 72 hours. | See also: Recent months at Robe Airport
Date/Time
EDT
Wind Sea
Height
m
Swell Vis
km
Cloud Weather Temp
°C
Press
MSL
hPa
Rain since
9am
mm
Dir  Spd
kts
Gust
kts
Height
m
Period
s
Dir
07/08:00pm S 15 22 - - - - - - - 12.4 1013.9 0.4
07/07:30pm SSW 16 25 - - - - - - - 13.6 1013.4 0.4
07/07:00pm SSW 18 24 - - - - - - - 14.5 1012.8 0.4
07/06:30pm SSW 18 27 - - - - - - - 14.5 1012.4 0.4
07/06:14pm SSW 16 26 - - - - - - - 15.3 1012.2 0.4
07/06:00pm SSW 19 26 - - - - - - - 15.5 1011.9 0.4
07/05:30pm SSW 20 27 - - - - - - - 15.4 1011.8 0.4
07/05:16pm SSW 17 27 - - - - - - - 15.7 1011.7 0.4
07/05:00pm SSW 19 27 - - - - - - - 15.3 1011.5 0.4
07/04:30pm SSW 20 29 - - - - - - - 15.2 1011.1 0.4
07/04:00pm SSW 18 26 - - - - - - - 14.3 1010.8 0.4
07/03:30pm SW 18 26 - - - - - - Recent precip. 15.2 1010.6 0.4
07/03:00pm SW 17 24 - - - - - - - 13.6 1010.5 0.4
07/02:30pm SW 10 17 - - - - - - - 14.1 1010.4 0.2
07/02:18pm SW 16 27 - - - - - - - 13.2 1010.5 0.2
07/02:00pm WSW 14 22 - - - - - - - 16.4 1010.0 0.0
07/01:30pm WSW 12 20 - - - - - - - 17.7 1009.8 0.0
07/01:00pm WSW 10 15 - - - - - - - 17.6 1009.8 0.0
07/12:30pm SW 13 19 - - - - - - - 17.5 1009.8 0.0
07/12:00pm SW 11 18 - - - - - - - 17.2 1009.7 0.0
07/11:30am SW 10 16 - - - - - - - 16.7 1009.6 0.0
07/11:00am SW 9 15 - - - - - - - 16.5 1009.4 0.0
07/10:30am SW 9 15 - - - - - - - 16.6 1009.2 0.0
07/10:00am SSW 9 14 - - - - - - - 16.1 1009.1 0.0
07/09:30am SSW 13 19 - - - - - - - 15.9 1008.9 0.0
07/09:00am SSW 12 18 - - - - - - - 15.3 1008.5 0.0
07/08:30am SW 13 20 - - - - - - - 14.1 1008.4 0.0
07/08:00am SSW 9 14 - - - - - - - 14.2 1008.0 0.0
07/07:30am SSW 8 12 - - - - - - - 14.1 1007.6 0.0
07/07:00am SSW 9 13 - - - - - - - 12.8 1007.2 0.0
07/06:30am SSW 8 11 - - - - - - - 12.5 1007.0 0.0
07/06:00am SSW 6 9 - - - - - - - 12.0 1006.6 0.0
07/05:30am SSW 6 9 - - - - - - - 11.9 1006.4 0.0
07/05:00am SSW 6 8 - - - - - - - 11.7 1006.2 0.0
07/04:30am SSW 4 6 - - - - - - - 10.6 1006.1 0.0
07/04:00am CALM 0 0 - - - - - - - 10.1 1005.7 0.0
07/03:30am S 1 2 - - - - - - - 10.3 1005.8 0.0
07/03:00am S 3 3 - - - - - - - 10.6 1006.0 0.0
07/02:30am SSE 3 5 - - - - - - - 10.4 1006.2 0.0
07/02:00am S 3 4 - - - - - - - 10.5 1006.5 0.0
07/01:30am SSE 3 4 - - - - - - - 11.4 1006.6 0.0
07/01:00am SSE 5 6 - - - - - - - 11.8 1006.6 0.0
07/12:30am SE 5 7 - - - - - - - 11.8 1006.6 0.0
07/12:00am SSE 4 6 - - - - - - - 11.8 1006.7 0.0
 
Date/Time
EDT
Wind Sea
Height
m
Swell Vis
km
Cloud Weather Temp
°C
Press
MSL
hPa
Rain since
9am
mm
Dir  Spd
kts
Gust
kts
Height
m
Period
s
Dir
06/11:30pm SSE 5 6 - - - - - - - 12.0 1006.9 0.0
06/11:00pm S 6 8 - - - - - - - 12.3 1007.0 0.0
06/10:30pm S 6 8 - - - - - - - 13.0 1007.3 0.0
06/10:00pm SSE 8 11 - - - - - - - 14.2 1007.4 0.0
06/09:30pm SSE 8 10 - - - - - - - 14.6 1007.5 0.0
06/09:00pm S 6 9 - - - - - - - 14.7 1007.9 0.0
06/08:30pm S 7 10 - - - - - - - 14.8 1008.0 0.0
06/08:00pm S 6 9 - - - - - - - 14.8 1007.9 0.0
06/07:30pm SSE 8 11 - - - - - - - 15.1 1008.0 0.0
06/07:00pm SSE 10 14 - - - - - - - 15.2 1007.8 0.0
06/06:30pm SSE 10 14 - - - - - - - 15.2 1007.8 0.0
06/06:00pm S 11 15 - - - - - - - 16.1 1008.3 0.0
06/05:30pm S 10 15 - - - - - - - 17.3 1008.5 0.0
06/05:00pm S 11 15 - - - - - - - 17.8 1008.7 0.0
06/04:30pm SSW 10 15 - - - - - - - 17.6 1009.1 0.0
06/04:00pm SSW 8 13 - - - - - - - 17.4 1009.3 0.0
06/03:30pm SSW 10 14 - - - - - - - 17.1 1010.0 0.0
06/03:00pm SSW 9 11 - - - - - - - 17.3 1010.1 0.0
06/02:30pm SSW 8 11 - - - - - - - 16.9 1010.5 0.0
06/02:00pm SSW 10 14 - - - - - - - 16.5 1011.2 0.0
06/01:30pm SW 10 15 - - - - - - - 16.8 1011.3 0.0
06/01:00pm SSW 5 12 - - - - - - - 18.4 1011.3 0.0
06/12:30pm SSW 4 8 - - - - - - - 17.7 1011.6 0.0
06/12:00pm ESE 3 9 - - - - - - - 17.1 1011.9 0.0
06/11:30am ESE 6 10 - - - - - - - 17.0 1012.3 0.0
06/11:00am SE 7 11 - - - - - - - 16.5 1012.6 0.0
06/10:30am SSE 6 10 - - - - - - - 15.8 1013.4 0.0
06/10:00am SSE 9 12 - - - - - - - 15.4 1013.5 0.0
06/09:30am ESE 7 11 - - - - - - - 15.1 1014.0 0.0
06/09:00am ESE 9 15 - - - - - - - 14.3 1014.2 0.0
06/08:30am ESE 9 13 - - - - - - - 13.9 1014.2 0.0
06/08:00am ESE 9 13 - - - - - - - 12.9 1014.1 0.0
06/07:30am ESE 6 9 - - - - - - - 11.4 1013.9 0.0
06/07:00am SE 4 5 - - - - - - - 9.0 1013.9 0.0
06/06:30am SE 3 4 - - - - - - - 8.0 1014.0 0.0
06/06:00am SE 3 5 - - - - - - - 8.3 1014.0 0.0
06/05:30am ESE 3 5 - - - - - - - 8.6 1014.1 0.0
06/05:00am SE 5 8 - - - - - - - 9.2 1013.9 0.0
06/04:30am ESE 4 6 - - - - - - - 8.8 1014.2 0.0
06/04:00am SE 3 5 - - - - - - - 9.3 1014.6 0.0
06/03:30am SE 7 9 - - - - - - - 10.0 1014.4 0.0
06/03:00am SE 6 10 - - - - - - - 10.3 1015.2 0.0
06/02:30am SE 6 10 - - - - - - - 10.4 1015.6 0.0
06/02:00am SE 7 11 - - - - - - - 11.0 1015.9 0.0
06/01:30am SE 8 11 - - - - - - - 11.1 1016.1 0.0
06/01:00am ESE 7 10 - - - - - - - 10.3 1016.4 0.0
06/12:30am ESE 6 8 - - - - - - - 10.8 1016.7 0.0
06/12:00am ESE 6 9 - - - - - - - 10.8 1017.0 0.0
 
Date/Time
EDT
Wind Sea
Height
m
Swell Vis
km
Cloud Weather Temp
°C
Press
MSL
hPa
Rain since
9am
mm
Dir  Spd
kts
Gust
kts
Height
m
Period
s
Dir
05/11:30pm ESE 6 10 - - - - - - - 11.5 1017.1 0.0
05/11:00pm SE 8 10 - - - - - - - 12.6 1017.4 0.0
05/10:30pm SE 9 13 - - - - - - - 12.6 1017.6 0.0
05/10:00pm SE 10 17 - - - - - - - 12.6 1017.1 0.0
05/09:30pm SSE 10 17 - - - - - - - 13.1 1017.0 0.0
05/09:00pm SSE 12 17 - - - - - - - 13.1 1016.8 0.0
05/08:30pm SSE 13 19 - - - - - - - 13.0 1016.7 0.0
05/08:00pm SSE 13 19 - - - - - - - 13.3 1016.9 0.0
05/07:30pm SSE 14 19 - - - - - - - 13.9 1016.9 0.0
05/07:00pm S 13 19 - - - - - - - 14.8 1017.1 0.0
05/06:30pm S 16 21 - - - - - - - 15.1 1016.6 0.0
05/06:00pm SSE 15 24 - - - - - - - 15.1 1016.5 0.0
05/05:30pm S 15 22 - - - - - - - 16.0 1016.7 0.0
05/05:00pm SSE 15 23 - - - - - - - 16.0 1016.6 0.0
05/04:30pm S 16 23 - - - - - - - 16.6 1016.7 0.0
05/04:00pm S 17 22 - - - - - - - 16.7 1016.8 0.0
05/03:30pm S 17 25 - - - - - - - 16.1 1016.9 0.0
05/03:00pm S 16 26 - - - - - - - 16.4 1017.0 0.0
05/02:30pm S 17 28 - - - - - - - 16.6 1017.1 0.0
05/02:18pm S 15 25 - - - - - - - 17.0 1017.1 0.0
05/02:00pm S 17 25 - - - - - - - 16.5 1017.3 0.0
05/01:41pm S 15 26 - - - - - - - 16.6 1017.2 0.0
05/01:30pm S 14 25 - - - - - - - 17.0 1017.4 0.0
05/01:24pm S 15 25 - - - - - - - 17.0 1017.4 0.0
05/01:00pm S 17 24 - - - - - - - 16.4 1017.3 0.0
05/12:30pm S 17 25 - - - - - - - 16.1 1017.3 0.0
05/12:00pm S 19 29 - - - - - - - 16.3 1017.0 0.0
05/11:55am S 19 29 - - - - - - - 16.4 1016.9 0.0
05/11:30am S 18 27 - - - - - - - 16.0 1016.8 0.0
05/11:00am S 17 24 - - - - - - - 16.1 1016.7 0.0
05/10:30am S 18 24 - - - - - - - 16.0 1016.5 0.0
05/10:00am S 17 23 - - - - - - - 15.9 1016.2 0.0
05/09:36am SSE 17 27 - - - - - - - 15.3 1016.1 0.0
05/09:30am SSE 18 26 - - - - - - - 15.4 1016.0 0.0
05/09:15am SSE 18 28 - - - - - - - 15.0 1015.8 0.0
05/09:00am SSE 14 21 - - - - - - - 14.1 1015.7 0.0
05/08:30am SSE 14 21 - - - - - - - 13.7 1015.5 0.0
05/08:00am SSE 16 23 - - - - - - - 13.1 1015.2 0.0
05/07:30am SSE 16 24 - - - - - - - 13.8 1014.8 0.0
05/07:00am S 15 20 - - - - - - - 14.3 1014.4 0.0
05/06:30am SSE 15 21 - - - - - - - 14.0 1014.2 0.0
05/06:00am SSE 17 23 - - - - - - - 14.3 1013.9 0.0
05/05:30am S 16 23 - - - - - - - 14.4 1013.6 0.0
05/05:00am S 14 20 - - - - - - - 14.2 1013.5 0.0
05/04:30am S 16 24 - - - - - - - 14.6 1013.2 0.0
05/04:00am S 15 22 - - - - - - - 15.2 1013.3 0.0
05/03:30am S 16 22 - - - - - - - 15.0 1013.4 0.0
05/03:00am S 16 23 - - - - - - - 15.3 1013.2 0.0
05/02:30am S 16 22 - - - - - - - 15.3 1013.3 0.0
05/02:00am S 15 24 - - - - - - - 15.1 1013.0 0.0
05/01:30am S 14 21 - - - - - - - 15.5 1013.1 0.0
05/01:00am S 13 22 - - - - - - - 15.5 1013.0 0.0
05/12:30am S 15 24 - - - - - - - 15.6 1012.8 0.0
05/12:00am S 15 22 - - - - - - - 15.6 1012.9 0.0
 
Date/Time
EDT
Wind Sea
Height
m
Swell Vis
km
Cloud Weather Temp
°C
Press
MSL
hPa
Rain since
9am
mm
Dir  Spd
kts
Gust
kts
Height
m
Period
s
Dir
04/11:30pm S 15 23 - - - - - - - 15.6 1012.3 0.0
04/11:00pm SSW 13 18 - - - - - - - 15.7 1012.4 0.0
04/10:30pm SSW 14 20 - - - - - - - 15.7 1012.1 0.0
04/10:00pm SSW 12 19 - - - - - - - 15.9 1012.0 0.0
04/09:30pm SSW 14 20 - - - - - - - 15.9 1011.4 0.0
04/09:00pm SSW 13 18 - - - - - - - 15.9 1011.2 0.0

Other formats

Comma delimited format used in spreadsheet applications
http://www.bom.gov.au/fwo/IDV60701/IDV60701.95816.axf

JavaScript Object Notation format (JSON) in row-major order
http://www.bom.gov.au/fwo/IDV60701/IDV60701.95816.json

Data quality

Most of these data are generated automatically and are frequently updated. Quality checks on data are not normally performed. It is possible for incorrect values to appear. Refer to information at About Latest Weather Observations and please check the disclaimer before using these data.